Time;durP1;ratioP1;P1;durP2;ratioP2;P2;SDS_P1;SDS_P2;PMS_P1;PMS_P2;Temp;Humidity;BMP_temperature;BMP_pressure;BME280_temperature;BME280_humidity;BME280_pressure;Samples;Min_cycle;Max_cycle;Signal;HPM_P1;HPM_P2
2022/07/11 00:01:49;;;;;;;9.48;4.53;;;;;;;18.74;67.02;102312.66;5035871;28;20036;-71
2022/07/11 00:04:15;;;;;;;7.25;4.00;;;;;;;18.79;66.92;102313.53;5035707;28;20091;-70
2022/07/11 00:06:40;;;;;;;8.50;4.15;;;;;;;18.77;66.98;102312.66;5035378;28;20025;-71
2022/07/11 00:09:06;;;;;;;9.38;4.25;;;;;;;18.68;67.10;102315.31;5035495;28;20033;-70
2022/07/11 00:11:31;;;;;;;9.40;4.35;;;;;;;18.66;67.24;102317.06;5035214;28;20018;-71
2022/07/11 00:13:57;;;;;;;7.70;4.43;;;;;;;18.63;67.45;102311.69;5035145;28;20022;-71
2022/07/11 00:16:22;;;;;;;9.57;4.43;;;;;;;18.68;67.41;102309.94;5035012;28;20084;-71
2022/07/11 00:18:48;;;;;;;9.32;4.82;;;;;;;18.66;67.45;102317.06;5035059;28;20083;-71
2022/07/11 00:21:13;;;;;;;9.13;4.78;;;;;;;18.73;66.92;102309.06;5033894;28;20022;-71
2022/07/11 00:23:38;;;;;;;8.40;4.70;;;;;;;18.74;66.45;102307.28;5035047;28;20065;-71
2022/07/11 00:26:04;;;;;;;9.25;5.03;;;;;;;18.72;67.45;102303.72;5035044;28;20029;-71
2022/07/11 00:28:30;;;;;;;9.48;5.10;;;;;;;18.61;67.76;102295.66;5034998;28;20037;-71
2022/07/11 00:30:56;;;;;;;11.60;4.90;;;;;;;18.53;68.14;102303.66;5034553;28;20032;-70
2022/07/11 00:33:21;;;;;;;9.68;4.68;;;;;;;18.44;68.13;102295.63;5034691;28;20053;-71
2022/07/11 00:35:47;;;;;;;9.98;4.82;;;;;;;18.38;68.08;102284.94;5034823;28;20100;-71
2022/07/11 00:38:13;;;;;;;9.18;4.90;;;;;;;18.45;68.26;102292.06;5034926;28;20025;-71
2022/07/11 00:40:38;;;;;;;8.27;5.10;;;;;;;18.38;68.14;102286.72;5034931;28;20037;-71
2022/07/11 00:43:04;;;;;;;10.15;4.85;;;;;;;18.33;68.06;102296.50;5034773;28;20493;-71
2022/07/11 00:45:29;;;;;;;10.43;4.50;;;;;;;18.31;68.12;102301.84;5034684;28;20543;-70
2022/07/11 00:47:56;;;;;;;7.78;4.85;;;;;;;18.26;68.04;102293.81;5034731;28;20049;-70
2022/07/11 00:50:22;;;;;;;8.20;4.90;;;;;;;18.17;68.36;102292.91;5034424;28;20423;-70
2022/07/11 00:52:49;;;;;;;8.35;4.78;;;;;;;18.10;68.27;102293.78;5034549;28;20080;-71
2022/07/11 00:55:15;;;;;;;10.27;4.82;;;;;;;17.98;68.36;102289.28;5034585;28;20112;-71
2022/07/11 00:57:41;;;;;;;8.75;4.60;;;;;;;17.88;68.78;102291.03;5034294;28;20120;-71
2022/07/11 01:00:07;;;;;;;8.13;4.82;;;;;;;17.82;69.31;102284.78;5034375;28;20029;-71
2022/07/11 01:02:33;;;;;;;9.80;5.13;;;;;;;17.70;69.62;102283.78;5034102;28;20029;-71
2022/07/11 01:04:58;;;;;;;10.63;5.53;;;;;;;17.65;70.09;102287.34;5034340;28;20030;-70
2022/07/11 01:07:24;;;;;;;10.35;5.30;;;;;;;17.62;69.99;102290.00;5034381;28;20026;-70
2022/07/11 01:09:50;;;;;;;11.80;5.63;;;;;;;17.64;70.07;102291.78;5034267;28;20503;-70
2022/07/11 01:12:15;;;;;;;7.68;5.10;;;;;;;17.67;70.09;102293.56;5034193;28;20029;-70
2022/07/11 01:14:54;;;;;;;8.75;5.78;;;;;;;17.74;69.41;102290.97;5033822;28;20610;-70
2022/07/11 01:17:19;;;;;;;9.75;4.97;;;;;;;17.69;70.12;102295.38;5034209;28;20475;-70
2022/07/11 01:19:45;;;;;;;14.15;5.78;;;;;;;17.64;70.26;102294.44;5033956;28;20029;-71
2022/07/11 01:22:13;;;;;;;8.77;5.68;;;;;;;17.61;70.47;102281.09;5034149;28;20025;-71
2022/07/11 01:24:40;;;;;;;10.43;5.82;;;;;;;17.61;70.46;102285.53;5033909;28;20480;-70
2022/07/11 01:27:07;;;;;;;9.77;5.78;;;;;;;17.72;70.40;102287.34;5032730;28;20426;-71
2022/07/11 01:29:32;;;;;;;9.35;5.80;;;;;;;17.72;70.25;102287.34;5033640;28;20033;-70
2022/07/11 01:31:58;;;;;;;12.65;5.82;;;;;;;17.68;70.29;102282.88;5033508;28;20091;-71
2022/07/11 01:34:23;;;;;;;10.02;5.75;;;;;;;17.66;70.07;102284.66;5033800;28;20033;-71
2022/07/11 01:36:48;;;;;;;11.27;6.07;;;;;;;17.68;69.81;102295.34;5032287;28;20032;-71
2022/07/11 01:39:14;;;;;;;10.23;5.82;;;;;;;17.67;69.95;102289.13;5033790;28;20108;-71
2022/07/11 01:41:39;;;;;;;8.55;6.00;;;;;;;17.67;70.06;102289.13;5033008;28;20036;-71
2022/07/11 01:44:04;;;;;;;8.50;5.68;;;;;;;17.62;70.24;102290.88;5033614;28;20430;-71
2022/07/11 01:46:30;;;;;;;9.75;6.20;;;;;;;17.58;70.88;102288.19;5033429;28;20060;-71
2022/07/11 01:48:55;;;;;;;9.90;6.00;;;;;;;17.63;69.88;102287.31;5033580;28;20367;-71
2022/07/11 01:51:23;;;;;;;10.15;5.90;;;;;;;17.64;69.73;102291.78;5033486;28;20041;-71
2022/07/11 01:53:48;;;;;;;9.93;6.30;;;;;;;17.57;70.38;102292.66;5033496;28;20030;-71
2022/07/11 01:56:14;;;;;;;12.38;6.60;;;;;;;17.48;71.21;102297.94;5033547;28;20463;-71
2022/07/11 01:58:39;;;;;;;13.48;6.22;;;;;;;17.48;71.37;102296.16;5033289;28;20453;-70
2022/07/11 02:01:05;;;;;;;10.20;6.30;;;;;;;17.40;71.68;102297.00;5033072;28;20493;-71
2022/07/11 02:03:30;;;;;;;13.85;7.13;;;;;;;17.49;71.60;102295.28;5032059;28;20028;-71
2022/07/11 02:05:55;;;;;;;11.45;6.10;;;;;;;17.47;71.72;102301.47;5033311;28;20478;-70
2022/07/11 02:08:21;;;;;;;10.80;6.40;;;;;;;17.50;71.66;102301.50;5033124;28;20025;-70
2022/07/11 02:10:48;;;;;;;10.35;6.03;;;;;;;17.58;71.25;102299.78;5033255;28;20100;-71
2022/07/11 02:13:19;;;;;;;9.00;6.32;;;;;;;17.56;71.25;102298.88;5033342;28;20025;-71
2022/07/11 02:15:46;;;;;;;11.80;6.60;;;;;;;17.51;72.25;102301.53;5032829;28;20440;-70
2022/07/11 02:18:12;;;;;;;11.75;6.95;;;;;;;17.51;72.42;102295.28;5033123;28;20033;-70
2022/07/11 02:20:40;;;;;;;12.48;6.63;;;;;;;17.48;73.02;102296.16;5033026;28;20108;-71
2022/07/11 02:23:06;;;;;;;12.27;6.80;;;;;;;17.50;73.21;102289.03;5033064;28;20033;-70
2022/07/11 02:25:34;;;;;;;14.82;6.80;;;;;;;17.53;73.34;102283.72;5032980;28;20101;-71
2022/07/11 02:28:01;;;;;;;14.05;7.35;;;;;;;17.64;73.29;102291.78;5033166;28;20067;-71
2022/07/11 02:30:26;;;;;;;13.25;7.10;;;;;;;17.62;74.02;102288.22;5032794;28;20025;-71
2022/07/11 02:32:52;;;;;;;10.65;6.68;;;;;;;17.57;74.15;102286.41;5032971;28;20032;-71
2022/07/11 02:35:18;;;;;;;17.27;7.05;;;;;;;17.72;73.62;102289.13;5032996;28;20024;-71
2022/07/11 02:37:43;;;;;;;11.23;7.20;;;;;;;17.71;73.95;102288.25;5048159;28;20450;-71
2022/07/11 02:40:09;;;;;;;12.18;7.05;;;;;;;17.71;74.11;102293.59;5032815;28;20048;-70
2022/07/11 02:42:35;;;;;;;14.18;7.45;;;;;;;17.75;74.06;102287.41;5032810;28;20386;-70
2022/07/11 02:45:01;;;;;;;14.80;7.50;;;;;;;17.83;73.48;102284.78;5033113;28;20499;-71
2022/07/11 02:47:27;;;;;;;14.52;7.28;;;;;;;17.87;73.73;102280.34;5032959;28;20029;-71
2022/07/11 02:49:52;;;;;;;15.15;7.13;;;;;;;17.92;73.54;102291.94;5032948;28;20099;-70
2022/07/11 02:52:17;;;;;;;14.70;7.00;;;;;;;17.90;73.63;102283.00;5032683;28;20057;-71
2022/07/11 02:54:43;;;;;;;17.33;7.38;;;;;;;17.91;73.56;102284.81;5035978;28;20471;-71
2022/07/11 02:57:08;;;;;;;15.38;7.25;;;;;;;17.86;73.84;102279.44;5036568;28;20548;-71
2022/07/11 02:59:33;;;;;;;12.68;6.68;;;;;;;17.96;73.77;102281.25;5036601;28;20108;-71
2022/07/11 03:01:59;;;;;;;11.68;6.82;;;;;;;17.93;73.95;102281.22;5036859;28;20605;-71
2022/07/11 03:04:25;;;;;;;14.40;7.20;;;;;;;17.94;73.83;102282.13;5036629;28;20029;-71
2022/07/11 03:06:51;;;;;;;15.73;7.30;;;;;;;17.91;74.05;102283.03;5035327;28;20376;-71
2022/07/11 03:09:16;;;;;;;11.70;7.10;;;;;;;17.89;74.15;102283.91;5036655;28;20037;-71
2022/07/11 03:11:42;;;;;;;12.48;7.00;;;;;;;17.87;74.29;102283.91;5036300;28;20493;-71
2022/07/11 03:14:08;;;;;;;12.75;6.90;;;;;;;17.93;74.66;102278.56;5036477;28;20025;-71
2022/07/11 03:16:34;;;;;;;15.15;7.10;;;;;;;17.89;74.14;102291.91;5036142;28;20045;-71
2022/07/11 03:19:00;;;;;;;13.45;6.80;;;;;;;17.91;74.25;102282.13;5036355;28;20033;-71
2022/07/11 03:21:25;;;;;;;12.50;6.85;;;;;;;18.00;73.86;102291.06;5036280;28;20486;-71
2022/07/11 03:23:51;;;;;;;12.10;7.18;;;;;;;17.99;74.40;102288.41;5036307;28;20479;-71
2022/07/11 03:26:17;;;;;;;10.68;7.00;;;;;;;18.02;73.98;102291.97;5036205;28;20065;-71
2022/07/11 03:28:42;;;;;;;14.50;7.03;;;;;;;18.01;74.20;102297.31;5036050;28;20033;-71
2022/07/11 03:31:08;;;;;;;12.60;7.10;;;;;;;18.05;74.09;102298.22;5035621;28;20026;-71
2022/07/11 03:33:33;;;;;;;14.57;7.05;;;;;;;18.07;73.75;102288.41;5036283;28;20026;-71
2022/07/11 03:35:59;;;;;;;13.77;6.75;;;;;;;18.12;73.64;102295.56;5036041;28;20036;-71
2022/07/11 03:38:24;;;;;;;12.65;6.93;;;;;;;18.10;73.80;102297.34;5035892;28;20033;-71
2022/07/11 03:40:50;;;;;;;11.13;6.95;;;;;;;18.08;74.22;102299.13;5035798;28;20024;-71
2022/07/11 03:43:16;;;;;;;16.15;7.32;;;;;;;18.07;73.97;102291.97;5035572;28;20087;-71
2022/07/11 03:45:41;;;;;;;11.82;6.70;;;;;;;18.08;74.11;102295.56;5035827;28;20117;-71
2022/07/11 03:48:07;;;;;;;12.85;6.70;;;;;;;18.02;74.09;102299.97;5035998;28;20026;-71
2022/07/11 03:50:33;;;;;;;15.38;7.00;;;;;;;18.00;74.81;102298.22;5035779;28;20113;-71
2022/07/11 03:52:59;;;;;;;8.95;6.40;;;;;;;18.03;74.64;102295.56;5035848;28;20138;-71
2022/07/11 03:55:24;;;;;;;10.05;6.80;;;;;;;17.99;74.68;102289.28;5035638;28;20197;-71
2022/07/11 03:57:50;;;;;;;11.27;6.45;;;;;;;18.04;74.39;102293.75;5035409;28;20026;-71
2022/07/11 04:00:16;;;;;;;12.05;6.90;;;;;;;18.02;74.39;102296.41;5035538;28;20052;-71
2022/07/11 04:02:42;;;;;;;14.52;6.80;;;;;;;18.02;74.24;102293.75;5035440;28;20079;-71
2022/07/11 04:05:08;;;;;;;13.07;6.53;;;;;;;17.98;74.38;102295.50;5034945;28;20060;-71
2022/07/11 04:07:33;;;;;;;12.30;6.43;;;;;;;18.05;74.48;102293.75;5035760;28;20116;-71
2022/07/11 04:09:59;;;;;;;10.38;6.35;;;;;;;18.04;74.42;102291.97;5035420;28;20450;-71
2022/07/11 04:12:24;;;;;;;12.68;6.68;;;;;;;18.12;74.29;102292.91;5035156;28;20443;-71
2022/07/11 04:14:49;;;;;;;13.90;6.78;;;;;;;18.11;74.42;102288.41;5035065;28;20515;-71
2022/07/11 04:17:16;;;;;;;10.85;6.43;;;;;;;18.12;74.24;102295.56;5035222;28;20043;-71
2022/07/11 04:19:44;;;;;;;12.68;6.80;;;;;;;18.10;74.45;102289.31;5035320;28;20048;-71
2022/07/11 04:22:09;;;;;;;11.38;7.03;;;;;;;18.03;74.53;102298.22;5035393;28;20030;-71
2022/07/11 04:24:35;;;;;;;11.75;6.63;;;;;;;18.06;74.51;102300.88;5035067;28;20099;-71
2022/07/11 04:27:00;;;;;;;14.18;7.90;;;;;;;18.00;75.04;102298.22;5034935;28;20034;-71
2022/07/11 04:29:26;;;;;;;14.45;7.25;;;;;;;17.95;74.72;102292.84;5034939;28;20026;-71
2022/07/11 04:31:51;;;;;;;12.48;7.38;;;;;;;17.98;75.01;102295.50;5034787;28;20033;-71
2022/07/11 04:34:17;;;;;;;11.70;6.97;;;;;;;17.93;75.27;102293.72;5035208;28;20468;-71
2022/07/11 04:36:43;;;;;;;9.90;7.13;;;;;;;17.90;75.52;102299.97;5035158;28;20488;-71
2022/07/11 04:39:09;;;;;;;13.18;7.30;;;;;;;17.91;75.42;102299.06;5034885;28;20022;-71
2022/07/11 04:41:34;;;;;;;14.73;7.20;;;;;;;17.97;75.11;102300.88;5034666;28;20018;-71
2022/07/11 04:43:59;;;;;;;12.15;6.75;;;;;;;17.97;75.29;102304.44;5034976;28;20060;-71
2022/07/11 04:46:25;;;;;;;13.35;6.82;;;;;;;17.97;75.43;102306.22;5034898;28;20483;-71
2022/07/11 04:48:50;;;;;;;11.88;6.38;;;;;;;18.00;75.26;102312.47;5034731;28;20501;-71
2022/07/11 04:51:17;;;;;;;12.93;6.45;;;;;;;18.02;75.24;102316.03;5034647;28;20018;-71
2022/07/11 04:53:42;;;;;;;13.57;6.30;;;;;;;18.06;75.07;102322.28;5034537;28;20030;-71
2022/07/11 04:56:08;;;;;;;12.43;6.85;;;;;;;18.00;75.51;102312.47;5034326;28;20033;-71
2022/07/11 04:58:34;;;;;;;15.10;6.47;;;;;;;17.88;75.20;102293.69;5034345;28;20056;-71
2022/07/11 05:00:59;;;;;;;12.95;6.10;;;;;;;17.99;75.56;102316.03;5034227;28;20395;-71
2022/07/11 05:03:24;;;;;;;11.50;6.15;;;;;;;17.98;75.33;102322.25;5034507;28;20056;-71
2022/07/11 05:05:50;;;;;;;10.05;5.70;;;;;;;18.07;75.33;102321.41;5034331;28;20378;-71
2022/07/11 05:08:15;;;;;;;10.32;5.93;;;;;;;18.04;75.39;102325.88;5034197;28;20038;-71
2022/07/11 05:10:41;;;;;;;11.90;6.30;;;;;;;18.08;75.31;102327.66;5034097;28;20022;-71
2022/07/11 05:13:06;;;;;;;13.20;6.47;;;;;;;18.05;75.90;102328.53;5034253;28;20532;-71
2022/07/11 05:15:31;;;;;;;11.73;6.07;;;;;;;18.01;75.64;102322.28;5031964;28;20057;-71
2022/07/11 05:17:57;;;;;;;12.20;6.47;;;;;;;17.99;75.89;102328.53;5032453;28;20035;-71
2022/07/11 05:20:22;;;;;;;14.18;6.82;;;;;;;17.98;76.52;102332.94;5032745;28;20029;-71
2022/07/11 05:22:48;;;;;;;14.05;6.20;;;;;;;18.08;76.41;102331.22;5033992;28;20031;-71
2022/07/11 05:25:14;;;;;;;10.80;5.88;;;;;;;18.09;76.36;102330.34;5033885;28;20029;-71
2022/07/11 05:27:39;;;;;;;16.15;6.80;;;;;;;18.10;76.56;102325.88;5033837;28;20112;-71
2022/07/11 05:30:05;;;;;;;10.90;6.13;;;;;;;18.12;76.41;102335.72;5034153;28;20071;-71
2022/07/11 05:32:31;;;;;;;10.07;6.18;;;;;;;18.17;76.75;102339.28;5033559;28;20048;-71
2022/07/11 05:35:01;;;;;;;9.75;5.88;;;;;;;18.20;76.29;102335.69;5033735;28;20419;-71
2022/07/11 05:37:27;;;;;;;12.85;6.25;;;;;;;18.17;75.98;102336.59;5033638;28;20068;-71
2022/07/11 05:39:53;;;;;;;13.23;6.18;;;;;;;18.16;76.37;102333.94;5033455;28;20057;-71
2022/07/11 05:42:18;;;;;;;11.48;6.30;;;;;;;18.14;76.08;102335.69;5033681;28;20057;-71
2022/07/11 05:44:43;;;;;;;12.02;5.95;;;;;;;18.18;75.89;102334.81;5033877;28;20037;-71
2022/07/11 05:47:09;;;;;;;10.80;5.93;;;;;;;18.12;76.43;102332.13;5033685;28;20052;-71
2022/07/11 05:49:34;;;;;;;12.30;6.57;;;;;;;18.17;76.34;102339.28;5033685;28;20026;-71
2022/07/11 05:52:01;;;;;;;12.30;6.32;;;;;;;18.19;76.40;102336.59;5033487;28;20029;-71
2022/07/11 05:54:28;;;;;;;12.52;6.50;;;;;;;18.29;76.00;102351.81;5033185;28;20029;-71
2022/07/11 05:56:54;;;;;;;17.83;6.82;;;;;;;18.25;76.42;102345.56;5033230;28;20025;-71
2022/07/11 05:59:20;;;;;;;22.27;7.00;;;;;;;18.27;76.19;102348.22;5033516;28;20108;-71
2022/07/11 06:01:46;;;;;;;14.85;6.22;;;;;;;18.22;76.58;102352.69;5033241;28;20057;-71
2022/07/11 06:04:12;;;;;;;15.35;6.25;;;;;;;18.21;76.47;102345.53;5033378;28;20025;-71
2022/07/11 06:06:38;;;;;;;12.45;5.57;;;;;;;18.17;76.41;102349.97;5033311;28;20029;-71
2022/07/11 06:09:03;;;;;;;16.13;6.28;;;;;;;18.17;76.70;102347.31;5033016;28;20395;-71
2022/07/11 06:11:29;;;;;;;11.25;4.85;;;;;;;18.23;76.00;102358.00;5033301;28;20384;-71
2022/07/11 06:13:55;;;;;;;13.10;5.45;;;;;;;18.17;76.74;102352.66;5032044;28;20083;-71
2022/07/11 06:16:20;;;;;;;12.60;5.10;;;;;;;18.20;76.79;102367.81;5032828;28;20037;-71
2022/07/11 06:18:46;;;;;;;8.98;5.18;;;;;;;18.16;77.08;102360.69;5031883;28;20041;-71
2022/07/11 06:21:11;;;;;;;21.92;5.60;;;;;;;18.14;77.21;102363.34;5033281;28;20418;-71
2022/07/11 06:23:37;;;;;;;14.73;5.38;;;;;;;18.11;77.20;102371.34;5032782;28;20026;-71
2022/07/11 06:26:03;;;;;;;9.30;4.60;;;;;;;18.08;77.41;102362.44;5033330;28;20032;-71
2022/07/11 06:28:29;;;;;;;11.55;4.75;;;;;;;18.09;77.68;102362.44;5032820;28;20061;-71
2022/07/11 06:30:54;;;;;;;10.60;4.57;;;;;;;18.09;77.75;102366.91;5032703;28;20151;-71
2022/07/11 06:33:20;;;;;;;12.13;4.70;;;;;;;18.05;78.26;102359.75;5033123;28;20029;-71
2022/07/11 06:35:47;;;;;;;7.53;4.15;;;;;;;18.03;77.97;102370.44;5032745;28;20115;-71
2022/07/11 06:38:14;;;;;;;9.35;4.20;;;;;;;18.03;78.64;102370.44;5032820;28;20493;-71
2022/07/11 06:40:40;;;;;;;15.65;4.28;;;;;;;17.99;78.55;102366.88;5032777;28;20479;-70
2022/07/11 06:43:06;;;;;;;12.07;4.38;;;;;;;18.08;78.60;102370.47;5033133;28;20403;-71
2022/07/11 06:45:32;;;;;;;9.00;4.00;;;;;;;18.09;78.31;102369.56;5032805;28;20519;-71
2022/07/11 06:47:58;;;;;;;7.55;4.10;;;;;;;18.13;77.55;102371.38;5032968;28;20038;-71
2022/07/11 06:50:23;;;;;;;6.60;3.50;;;;;;;18.19;77.62;102358.91;5032754;28;20503;-72
2022/07/11 06:52:49;;;;;;;9.98;3.72;;;;;;;18.23;77.23;102366.03;5032571;28;20026;-71
2022/07/11 06:55:14;;;;;;;8.52;3.45;;;;;;;18.29;76.76;102351.81;5033028;28;20026;-72
2022/07/11 06:57:40;;;;;;;8.30;3.20;;;;;;;18.37;75.61;102359.84;5032650;28;20029;-72
2022/07/11 07:00:07;;;;;;;5.90;3.10;;;;;;;18.40;75.51;102358.06;5031575;28;20497;-72
2022/07/11 07:02:33;;;;;;;4.03;2.90;;;;;;;18.46;74.96;102354.53;5032712;28;20060;-72
2022/07/11 07:04:59;;;;;;;4.18;2.50;;;;;;;18.53;74.98;102350.97;5032687;28;20030;-71
2022/07/11 07:07:25;;;;;;;5.00;2.35;;;;;;;18.61;75.01;102354.53;5032407;28;20095;-72
2022/07/11 07:09:51;;;;;;;4.45;2.40;;;;;;;18.69;73.49;102351.88;5032543;28;20033;-72
2022/07/11 07:12:16;;;;;;;2.75;2.13;;;;;;;18.74;73.76;102351.03;5032624;28;20104;-71
2022/07/11 07:14:42;;;;;;;2.60;2.00;;;;;;;18.89;72.83;102350.16;5032430;28;20037;-73
2022/07/11 07:17:07;;;;;;;3.22;2.17;;;;;;;19.05;72.54;102355.50;5032354;28;20049;-72
2022/07/11 07:19:33;;;;;;;3.55;2.10;;;;;;;19.27;70.37;102354.59;5032424;28;20038;-72
2022/07/11 07:21:58;;;;;;;4.80;2.00;;;;;;;19.37;70.64;102355.50;5032424;28;20498;-73
2022/07/11 07:24:23;;;;;;;3.85;2.13;;;;;;;19.55;70.49;102358.13;5047683;28;20049;-72
2022/07/11 07:26:49;;;;;;;3.60;2.00;;;;;;;19.67;69.31;102350.09;5032611;28;20101;-71
2022/07/11 07:29:14;;;;;;;3.47;1.90;;;;;;;19.76;68.39;102341.13;5032376;28;20037;-72
2022/07/11 07:31:40;;;;;;;3.10;1.80;;;;;;;19.89;68.42;102341.97;5032377;28;20483;-74
2022/07/11 07:34:05;;;;;;;6.28;1.80;;;;;;;20.02;67.55;102351.75;5032571;28;20044;-72
2022/07/11 07:36:31;;;;;;;2.90;1.50;;;;;;;20.07;67.00;102351.72;5032201;28;20479;-72
2022/07/11 07:38:56;;;;;;;1.90;1.33;;;;;;;20.19;66.18;102348.97;5032628;28;20104;-72
2022/07/11 07:41:21;;;;;;;1.58;1.40;;;;;;;20.15;65.80;102341.84;5036055;28;20026;-71
2022/07/11 07:43:48;;;;;;;5.78;1.77;;;;;;;20.17;66.00;102346.31;5035879;28;20034;-72
2022/07/11 07:46:14;;;;;;;3.28;1.90;;;;;;;20.21;66.45;102340.03;5035854;28;20549;-72
2022/07/11 07:48:40;;;;;;;4.70;1.80;;;;;;;20.27;65.58;102350.72;5035831;28;20033;-72
2022/07/11 07:51:06;;;;;;;5.50;1.75;;;;;;;20.29;65.89;102352.50;5035584;28;20029;-72
2022/07/11 07:53:32;;;;;;;13.10;2.42;;;;;;;20.35;65.37;102353.38;5035645;28;20018;-72
2022/07/11 07:55:57;;;;;;;1.92;1.67;;;;;;;20.35;65.53;102352.50;5035675;28;20026;-72
2022/07/11 07:58:23;;;;;;;4.30;1.90;;;;;;;20.45;65.51;102355.09;5035440;28;20052;-71
2022/07/11 08:03:32;;;;;;;4.20;2.58;;;;;;;20.52;65.49;102356.00;5035840;28;20406;-72
2022/07/11 08:05:57;;;;;;;6.22;2.50;;;;;;;20.53;65.96;102371.19;5035468;28;20025;-72
2022/07/11 08:08:23;;;;;;;3.17;2.45;;;;;;;20.50;65.66;102366.72;5035354;28;20076;-72
2022/07/11 08:10:48;;;;;;;3.92;2.40;;;;;;;20.44;66.57;102364.06;5035260;28;20057;-72
2022/07/11 08:13:14;;;;;;;4.78;2.30;;;;;;;20.41;65.86;102363.19;5035361;28;20041;-71
2022/07/11 08:15:39;;;;;;;11.73;3.03;;;;;;;20.38;65.78;102365.88;5035034;28;20077;-71
2022/07/11 08:18:04;;;;;;;22.33;2.97;;;;;;;20.26;66.02;102362.38;5035264;28;20116;-72
2022/07/11 08:20:30;;;;;;;4.45;2.40;;;;;;;20.28;65.87;102367.72;5035128;28;20036;-72
2022/07/11 08:23:06;;;;;;;5.43;2.47;;;;;;;20.25;66.75;102370.41;5035291;28;20544;-71
2022/07/11 08:25:31;;;;;;;7.68;2.42;;;;;;;20.19;66.97;102373.16;5035193;28;20075;-73
2022/07/11 08:27:57;;;;;;;5.78;2.60;;;;;;;20.14;67.02;102370.47;5035370;28;20038;-72
2022/07/11 08:30:22;;;;;;;4.30;3.10;;;;;;;20.18;66.56;102363.31;5035045;28;20033;-71
2022/07/11 08:32:47;;;;;;;4.22;3.10;;;;;;;20.22;66.69;102357.91;5034664;28;20479;-71
2022/07/11 08:35:15;;;;;;;5.60;3.30;;;;;;;20.23;67.17;102365.06;5034979;28;20033;-71
2022/07/11 08:37:41;;;;;;;4.28;3.33;;;;;;;20.24;66.51;102377.56;5034686;28;20033;-72
2022/07/11 08:40:07;;;;;;;5.05;3.80;;;;;;;20.18;66.15;102376.72;5035112;28;20030;-71
2022/07/11 08:42:44;;;;;;;8.45;4.05;;;;;;;20.15;66.55;102374.94;5050309;28;20026;-70
2022/07/11 08:45:13;;;;;;;5.25;3.90;;;;;;;20.20;66.74;102369.56;5035114;28;20021;-72
2022/07/11 08:47:39;;;;;;;9.60;4.57;;;;;;;20.13;67.25;102371.38;5050007;28;20030;-73
2022/07/11 08:50:05;;;;;;;5.38;4.38;;;;;;;20.12;67.01;102371.38;5034693;28;20113;-72
2022/07/11 08:52:32;;;;;;;7.43;4.57;;;;;;;20.16;67.30;102368.66;5034925;28;20026;-72
2022/07/11 08:54:58;;;;;;;6.80;4.47;;;;;;;20.15;67.14;102374.06;5034694;28;20021;-72
2022/07/11 08:57:24;;;;;;;6.30;4.70;;;;;;;20.10;66.91;102367.81;5034604;28;20514;-71
2022/07/11 08:59:55;;;;;;;40.17;6.50;;;;;;;20.14;67.66;102377.66;5034477;28;20041;-71
2022/07/11 09:02:22;;;;;;;42.47;7.20;;;;;;;20.19;67.22;102365.97;5034306;28;20029;-71
2022/07/11 09:04:48;;;;;;;41.15;7.05;;;;;;;20.27;66.51;102363.25;5034513;28;20021;-73
2022/07/11 09:07:13;;;;;;;25.58;5.60;;;;;;;20.33;67.13;102362.31;5034357;28;20087;-71
2022/07/11 09:09:39;;;;;;;12.73;5.07;;;;;;;20.40;66.61;102356.91;5034338;28;20021;-73
2022/07/11 09:12:12;;;;;;;6.43;4.13;;;;;;;20.52;66.42;102360.47;5034161;28;20126;-71
2022/07/11 09:14:38;;;;;;;7.32;4.30;;;;;;;20.72;65.05;102359.41;5034619;28;20520;-70
2022/07/11 09:17:05;;;;;;;5.78;4.03;;;;;;;20.86;65.52;102363.81;5033994;28;20081;-72
2022/07/11 09:19:32;;;;;;;32.50;9.43;;;;;;;20.85;65.01;102365.59;5033886;28;20091;-71
2022/07/11 09:27:51;;;;;;;10.85;4.38;;;;;;;21.15;64.66;102364.44;5034373;28;20040;-71
2022/07/11 09:30:17;;;;;;;7.05;4.80;;;;;;;21.13;64.81;102358.22;5034714;28;20056;-71
2022/07/11 09:32:55;;;;;;;7.63;5.05;;;;;;;21.27;64.83;102360.75;5033838;28;20025;-70
2022/07/11 09:35:22;;;;;;;12.32;5.28;;;;;;;21.38;64.55;102366.09;5033760;28;20463;-70
2022/07/11 09:37:48;;;;;;;10.25;5.10;;;;;;;21.41;63.53;102363.34;5033723;28;20052;-70
2022/07/11 09:40:15;;;;;;;15.00;5.18;;;;;;;21.44;63.61;102368.69;5033950;28;20395;-71
2022/07/11 09:42:57;;;;;;;8.15;4.82;;;;;;;21.50;64.03;102360.59;5034172;28;20033;-70
2022/07/11 09:45:27;;;;;;;9.52;5.38;;;;;;;21.47;63.23;102366.88;5034004;28;20030;-70
2022/07/11 09:47:55;;;;;;;11.25;5.25;;;;;;;21.50;63.06;102364.16;5033756;28;20025;-70
2022/07/11 09:50:26;;;;;;;8.95;5.32;;;;;;;21.52;63.42;102361.44;5033533;28;20036;-67
2022/07/11 09:53:18;;;;;;;7.57;4.77;;;;;;;21.63;63.58;102369.41;5033490;28;20032;-69
2022/07/11 09:55:48;;;;;;;7.47;4.82;;;;;;;21.67;62.00;102363.97;5030340;28;20080;-66
2022/07/11 09:58:15;;;;;;;8.38;5.10;;;;;;;21.73;61.58;102361.22;5033596;28;20052;-68
2022/07/11 10:00:42;;;;;;;10.48;5.43;;;;;;;21.98;61.33;102363.63;5033153;28;20033;-67
2022/07/11 10:03:09;;;;;;;6.40;4.88;;;;;;;22.10;60.24;102371.53;5032722;28;20108;-71
2022/07/11 10:05:35;;;;;;;7.22;5.07;;;;;;;22.09;60.50;102364.34;5048612;28;20018;-71
2022/07/11 10:08:01;;;;;;;6.25;4.75;;;;;;;22.22;60.20;102359.72;5033139;28;20541;-68
2022/07/11 10:10:29;;;;;;;6.20;4.32;;;;;;;22.21;59.62;102356.16;5033213;28;20494;-69
2022/07/11 10:12:55;;;;;;;6.05;4.28;;;;;;;22.23;59.74;102362.41;5033264;28;20075;-68
2022/07/11 10:15:35;;;;;;;6.47;4.60;;;;;;;22.25;60.80;102365.97;5033124;28;20132;-69
2022/07/11 10:18:09;;;;;;;9.73;4.60;;;;;;;22.29;60.05;102360.56;5032914;28;20369;-69
2022/07/11 10:20:46;;;;;;;8.35;4.13;;;;;;;22.30;59.33;102359.63;5033134;28;20026;-69
2022/07/11 10:23:24;;;;;;;7.30;4.40;;;;;;;22.33;59.01;102357.78;5032990;28;20029;-67
2022/07/11 10:26:02;;;;;;;7.55;4.63;;;;;;;22.34;59.02;102362.25;5033142;28;20364;-69
2022/07/11 10:28:37;;;;;;;22.92;5.53;;;;;;;22.39;59.52;102371.16;5033055;28;20506;-69
2022/07/11 10:31:03;;;;;;;19.25;5.60;;;;;;;22.41;59.96;102372.03;5032792;28;20029;-68
2022/07/11 10:33:29;;;;;;;12.75;4.57;;;;;;;22.42;59.96;102364.84;5032887;28;20052;-68
2022/07/11 10:35:55;;;;;;;15.77;4.90;;;;;;;22.43;59.34;102375.59;5032624;28;20503;-67
2022/07/11 10:38:23;;;;;;;6.65;4.25;;;;;;;22.50;59.25;102371.91;5032667;28;20037;-68
2022/07/11 10:40:54;;;;;;;6.65;4.10;;;;;;;22.58;58.63;102371.81;5033093;28;20087;-67
2022/07/11 10:43:19;;;;;;;5.40;3.88;;;;;;;22.60;58.31;102372.66;5032950;28;20022;-68
2022/07/11 10:46:02;;;;;;;4.93;3.97;;;;;;;22.71;59.31;102378.78;5033095;28;20025;-71
2022/07/11 10:48:29;;;;;;;;;;;;;;;22.88;58.65;102367.75;5033261;28;20116;-70
2022/07/11 10:51:11;;;;;;;6.40;3.70;;;;;;;22.84;58.48;102367.81;5033066;28;19948;-70
2022/07/11 10:53:45;;;;;;;7.93;3.67;;;;;;;22.71;57.79;102373.41;5032817;28;20033;-73
2022/07/11 10:56:14;;;;;;;4.63;3.47;;;;;;;22.64;58.80;102374.38;5031491;28;20025;-71
2022/07/11 10:58:45;;;;;;;5.05;3.53;;;;;;;22.64;58.95;102377.09;5032747;28;20095;-71
2022/07/11 11:01:12;;;;;;;6.70;3.75;;;;;;;22.63;58.83;102372.63;5032514;28;20091;-72
2022/07/11 11:03:39;;;;;;;4.60;3.80;;;;;;;22.59;58.96;102373.56;5032884;28;20033;-73
2022/07/11 11:06:04;;;;;;;5.22;3.60;;;;;;;22.68;59.04;102375.25;5032791;28;20040;-73
2022/07/11 11:08:50;;;;;;;6.75;3.72;;;;;;;22.58;58.92;102379.00;5032746;28;20422;-72
2022/07/11 11:11:22;;;;;;;5.10;3.42;;;;;;;22.65;58.84;102380.66;5032816;28;20035;-72
2022/07/11 11:14:20;;;;;;;9.23;3.50;;;;;;;22.75;58.68;102380.53;5032604;28;20053;-72
2022/07/11 11:16:45;;;;;;;11.68;3.60;;;;;;;22.71;58.43;102386.88;5036251;28;20626;-73
2022/07/11 11:19:48;;;;;;;6.55;3.88;;;;;;;22.67;59.18;102389.63;5036819;28;20032;-73
2022/07/11 11:22:14;;;;;;;;;;;;;;;22.88;58.77;102378.53;5036918;28;20032;-74
2022/07/11 11:24:42;;;;;;;5.20;3.53;;;;;;;22.92;58.10;102380.28;5036399;28;19920;-72
2022/07/11 11:27:17;;;;;;;5.70;3.70;;;;;;;22.88;58.48;102380.34;5034906;28;20120;-73
2022/07/11 11:29:43;;;;;;;6.38;3.90;;;;;;;23.10;58.06;102379.09;5036307;28;20390;-73